»·PEaware :: N32590 KCMA-KSNA

N32590 :: KCMA-KSNA

FLIGHT INFORMATION

Flight Status: Arrived
Operator: Privately registered:
United States
More flights under this callsign
Pilot: Mitchell F. (26966)
Aircraft: PIPER PA-28 CHEROKEE ARCHER
(PA28)
More flights by this aircraft type
Origin: KCMA Camarillo
United States
Destination: KSNA John Wayne-Orange Co
United States
More flights between these airports :: More routes between these airports
Route: LAX323018 LAX LAX123014
File this flight plan on PilotEdge
Remarks:
Altitude:
(Current/Filed)
5,500ft
Speed:
(Current/Filed)
110kts
Departed: 02-Aug-20 02:18 PM
Arrived: 02-Aug-20 03:04 PM
Distance/Time
Traveled:
69nm/0:46
Distance/Time
To Go:
Arrived

Flight Plot

Page will automatically refresh every two minutes.

Flight plan parsing failed; only flown route is shown


Map Options




Map Legend


Flown Route
Filed Route
Departure Airport
Arrival Airport
Navaid (VOR, NDB)
Fix

Horizontal Profiles

Position Reports

Time Latitude Longitude Heading Altitude Ground
Speed
02-Aug-20 13:57 34.210901 -119.094917 180 78ft 0kts
02-Aug-20 13:58 34.210893 -119.094917 180 78ft 0kts
02-Aug-20 13:59 34.210886 -119.094917 180 78ft 0kts
02-Aug-20 14:00 34.210879 -119.094918 180 78ft 0kts
02-Aug-20 14:01 34.210874 -119.094918 180 78ft 0kts
02-Aug-20 14:02 34.210870 -119.094918 180 78ft 0kts
02-Aug-20 14:03 34.210867 -119.094918 180 78ft 0kts
02-Aug-20 14:04 34.210864 -119.094918 180 78ft 0kts
02-Aug-20 14:05 34.210861 -119.094918 180 78ft 0kts
02-Aug-20 14:06 34.210859 -119.094918 180 78ft 0kts
02-Aug-20 14:07 34.210857 -119.094918 180 78ft 0kts
02-Aug-20 14:08 34.210819 -119.095042 326 78ft 4kts
02-Aug-20 14:09 34.211167 -119.094855 19 78ft 0kts
02-Aug-20 14:09 34.211169 -119.094854 19 78ft 0kts
02-Aug-20 14:10 34.211326 -119.094554 262 78ft 11kts
02-Aug-20 14:12 34.211610 -119.096012 132 78ft 19kts
02-Aug-20 14:12 34.211354 -119.091263 90 78ft 16kts
02-Aug-20 14:13 34.211323 -119.086781 90 78ft 15kts
02-Aug-20 14:14 34.213000 -119.084596 0 78ft 11kts
02-Aug-20 14:16 34.213140 -119.084596 357 78ft 0kts
02-Aug-20 14:16 34.213632 -119.085153 272 78ft 21kts
02-Aug-20 14:17 34.218749 -119.105441 343 914ft 86kts
02-Aug-20 14:18 34.229248 -119.081372 90 2099ft 98kts
02-Aug-20 14:19 34.228355 -119.046268 90 3224ft 104kts
02-Aug-20 14:20 34.228356 -119.012601 91 4594ft 99kts
02-Aug-20 14:21 34.226716 -118.975043 92 5456ft 126kts
02-Aug-20 14:22 34.226530 -118.934601 91 5447ft 114kts
02-Aug-20 14:23 34.228447 -118.893107 86 5495ft 127kts
02-Aug-20 14:24 34.230935 -118.851416 87 5338ft 124kts
02-Aug-20 14:25 34.232176 -118.808845 89 5543ft 134kts
02-Aug-20 14:26 34.228781 -118.765796 97 5529ft 127kts
02-Aug-20 14:27 34.225383 -118.723603 94 5522ft 126kts
02-Aug-20 14:28 34.223719 -118.682405 94 5519ft 123kts
02-Aug-20 14:29 34.222103 -118.639537 94 5536ft 130kts
02-Aug-20 14:30 34.220627 -118.596485 94 5524ft 127kts
02-Aug-20 14:31 34.199853 -118.564155 158 5596ft 131kts
02-Aug-20 14:32 34.165891 -118.548157 157 5521ft 130kts
02-Aug-20 14:33 34.133232 -118.531913 144 5502ft 127kts
02-Aug-20 14:34 34.146185 -118.504583 348 5486ft 137kts
02-Aug-20 14:35 34.152767 -118.538317 205 5516ft 139kts
02-Aug-20 14:36 34.118026 -118.526084 152 5539ft 131kts
02-Aug-20 14:37 34.087121 -118.507158 154 5511ft 122kts
02-Aug-20 14:38 34.056714 -118.490302 154 5506ft 119kts
02-Aug-20 14:39 34.025684 -118.473354 159 5526ft 123kts
02-Aug-20 14:40 33.993168 -118.461275 161 5532ft 125kts
02-Aug-20 14:41 33.959973 -118.445849 154 5538ft 125kts
02-Aug-20 14:42 33.929723 -118.424266 141 5545ft 128kts
02-Aug-20 14:43 33.902185 -118.397954 141 5539ft 126kts
02-Aug-20 14:44 33.875784 -118.372409 141 5533ft 124kts
02-Aug-20 14:45 33.847638 -118.345106 140 5542ft 129kts
02-Aug-20 14:46 33.820583 -118.316313 137 5526ft 131kts
02-Aug-20 14:47 33.794240 -118.286895 137 5498ft 127kts
02-Aug-20 14:48 33.768712 -118.258198 137 5502ft 127kts
02-Aug-20 14:49 33.753273 -118.221738 105 5497ft 127kts
02-Aug-20 14:50 33.745032 -118.181616 105 5485ft 124kts
02-Aug-20 14:51 33.737053 -118.142971 105 4824ft 122kts
02-Aug-20 14:52 33.729281 -118.105022 105 4015ft 114kts
02-Aug-20 14:53 33.720978 -118.068115 107 3359ft 114kts
02-Aug-20 14:54 33.712171 -118.031352 106 2834ft 114kts
02-Aug-20 14:55 33.703367 -117.994650 108 2634ft 117kts
02-Aug-20 14:56 33.696711 -117.957489 102 2519ft 112kts
02-Aug-20 14:57 33.690070 -117.920784 102 2181ft 112kts
02-Aug-20 14:58 33.687728 -117.886704 35 1314ft 91kts
02-Aug-20 14:59 33.710135 -117.871983 23 1302ft 89kts
02-Aug-20 15:00 33.728626 -117.853968 95 1049ft 83kts
02-Aug-20 15:01 33.710730 -117.845146 214 725ft 81kts
02-Aug-20 15:02 33.692695 -117.858083 210 467ft 74kts
02-Aug-20 15:03 33.676720 -117.868236 211 59ft 22kts
02-Aug-20 15:04 33.675745 -117.869765 295 59ft 0kts
02-Aug-20 15:05 33.676146 -117.870619 298 59ft 0kts

Navigation Log

Ident Type
Flight plan parsing failed, navigation log unavailable